sensor_id;sensor_type;location;lat;lon;timestamp;pressure;altitude;pressure_sealevel;temperature;humidity
49342;BME280;35210;41.606;-87.602;2024-01-10T00:01:10;96122.81;;;5.46;93.26
49342;BME280;35210;41.606;-87.602;2024-01-10T00:03:38;96122.16;;;5.44;93.22
49342;BME280;35210;41.606;-87.602;2024-01-10T00:06:06;96121.84;;;5.39;92.99
49342;BME280;35210;41.606;-87.602;2024-01-10T00:08:34;96121.03;;;5.38;93.28
49342;BME280;35210;41.606;-87.602;2024-01-10T00:11:04;96121.84;;;5.39;93.12
49342;BME280;35210;41.606;-87.602;2024-01-10T00:13:33;96118.25;;;5.40;93.01
49342;BME280;35210;41.606;-87.602;2024-01-10T00:16:02;96114.97;;;5.38;93.22
49342;BME280;35210;41.606;-87.602;2024-01-10T00:18:30;96112.19;;;5.39;93.36
49342;BME280;35210;41.606;-87.602;2024-01-10T00:20:59;96115.47;;;5.41;93.46
49342;BME280;35210;41.606;-87.602;2024-01-10T00:23:27;96119.88;;;5.41;93.15
49342;BME280;35210;41.606;-87.602;2024-01-10T00:25:55;96121.69;;;5.40;92.53
49342;BME280;35210;41.606;-87.602;2024-01-10T00:28:25;96120.69;;;5.41;92.61
49342;BME280;35210;41.606;-87.602;2024-01-10T00:30:53;96118.09;;;5.41;92.33
49342;BME280;35210;41.606;-87.602;2024-01-10T00:33:21;96121.84;;;5.39;92.65
49342;BME280;35210;41.606;-87.602;2024-01-10T00:35:50;96127.09;;;5.39;92.75
49342;BME280;35210;41.606;-87.602;2024-01-10T00:38:18;96132.31;;;5.39;92.51
49342;BME280;35210;41.606;-87.602;2024-01-10T00:40:47;96134.94;;;5.39;92.52
49342;BME280;35210;41.606;-87.602;2024-01-10T00:43:15;96139.50;;;5.37;92.72
49342;BME280;35210;41.606;-87.602;2024-01-10T00:45:45;96141.16;;;5.38;92.63
49342;BME280;35210;41.606;-87.602;2024-01-10T00:48:13;96142.28;;;5.35;92.32
49342;BME280;35210;41.606;-87.602;2024-01-10T00:50:43;96154.41;;;5.36;92.00
49342;BME280;35210;41.606;-87.602;2024-01-10T00:53:11;96146.72;;;5.35;92.73
49342;BME280;35210;41.606;-87.602;2024-01-10T00:55:39;96151.78;;;5.36;92.23
49342;BME280;35210;41.606;-87.602;2024-01-10T00:58:07;96159.13;;;5.33;92.44
49342;BME280;35210;41.606;-87.602;2024-01-10T01:00:35;96151.28;;;5.33;92.47
49342;BME280;35210;41.606;-87.602;2024-01-10T01:03:06;96152.94;;;5.34;91.85
49342;BME280;35210;41.606;-87.602;2024-01-10T01:05:34;96153.09;;;5.32;92.19
49342;BME280;35210;41.606;-87.602;2024-01-10T01:08:02;96150.31;;;5.34;92.03
49342;BME280;35210;41.606;-87.602;2024-01-10T01:10:31;96149.16;;;5.36;91.76
49342;BME280;35210;41.606;-87.602;2024-01-10T01:12:59;96148.69;;;5.33;91.83
49342;BME280;35210;41.606;-87.602;2024-01-10T01:15:27;96157.34;;;5.25;92.31
49342;BME280;35210;41.606;-87.602;2024-01-10T01:17:55;96166.50;;;5.29;92.23
49342;BME280;35210;41.606;-87.602;2024-01-10T01:20:25;96165.03;;;5.26;92.82
49342;BME280;35210;41.606;-87.602;2024-01-10T01:22:53;96157.50;;;5.32;93.23
49342;BME280;35210;41.606;-87.602;2024-01-10T01:25:21;96171.09;;;5.27;93.27
49342;BME280;35210;41.606;-87.602;2024-01-10T01:27:49;96171.09;;;5.27;93.09
49342;BME280;35210;41.606;-87.602;2024-01-10T01:30:17;96154.25;;;5.29;93.17
49342;BME280;35210;41.606;-87.602;2024-01-10T01:32:47;96174.19;;;5.31;93.45
49342;BME280;35210;41.606;-87.602;2024-01-10T01:35:15;96176.81;;;5.31;93.36
49342;BME280;35210;41.606;-87.602;2024-01-10T01:37:49;96172.56;;;5.29;92.96
49342;BME280;35210;41.606;-87.602;2024-01-10T01:40:18;96171.56;;;5.31;93.07
49342;BME280;35210;41.606;-87.602;2024-01-10T01:42:46;96180.72;;;5.26;93.20
49342;BME280;35210;41.606;-87.602;2024-01-10T01:45:15;96183.00;;;5.29;92.80
49342;BME280;35210;41.606;-87.602;2024-01-10T01:47:46;96179.75;;;5.27;92.99
49342;BME280;35210;41.606;-87.602;2024-01-10T01:50:14;96181.38;;;5.28;92.93
49342;BME280;35210;41.606;-87.602;2024-01-10T01:52:43;96196.09;;;5.29;92.98
49342;BME280;35210;41.606;-87.602;2024-01-10T01:55:14;96199.38;;;5.32;93.52
49342;BME280;35210;41.606;-87.602;2024-01-10T01:57:42;96195.78;;;5.33;93.52
49342;BME280;35210;41.606;-87.602;2024-01-10T02:00:11;96198.22;;;5.34;94.06
49342;BME280;35210;41.606;-87.602;2024-01-10T02:02:40;96201.16;;;5.31;93.75
49342;BME280;35210;41.606;-87.602;2024-01-10T02:05:09;96200.03;;;5.34;92.98
49342;BME280;35210;41.606;-87.602;2024-01-10T02:07:37;96199.69;;;5.28;93.42
49342;BME280;35210;41.606;-87.602;2024-01-10T02:10:08;96202.16;;;5.30;93.42
49342;BME280;35210;41.606;-87.602;2024-01-10T02:12:37;96200.50;;;5.29;94.18
49342;BME280;35210;41.606;-87.602;2024-01-10T02:15:06;96208.84;;;5.41;93.61
49342;BME280;35210;41.606;-87.602;2024-01-10T02:17:34;96211.13;;;5.36;93.75
49342;BME280;35210;41.606;-87.602;2024-01-10T02:20:09;96214.72;;;5.26;93.51
49342;BME280;35210;41.606;-87.602;2024-01-10T02:22:37;96223.41;;;5.27;94.40
49342;BME280;35210;41.606;-87.602;2024-01-10T02:25:08;96217.69;;;5.23;94.94
49342;BME280;35210;41.606;-87.602;2024-01-10T02:27:36;96230.91;;;5.30;98.16
49342;BME280;35210;41.606;-87.602;2024-01-10T02:30:06;96232.41;;;5.33;97.90
49342;BME280;35210;41.606;-87.602;2024-01-10T02:32:35;96234.69;;;5.36;97.38
49342;BME280;35210;41.606;-87.602;2024-01-10T02:35:03;96240.56;;;5.38;96.87
49342;BME280;35210;41.606;-87.602;2024-01-10T02:37:31;96240.56;;;5.38;96.26
49342;BME280;35210;41.606;-87.602;2024-01-10T02:39:59;96247.13;;;5.42;96.12
49342;BME280;35210;41.606;-87.602;2024-01-10T02:42:29;96255.13;;;5.40;95.96
49342;BME280;35210;41.606;-87.602;2024-01-10T02:44:57;96254.16;;;5.41;95.91
49342;BME280;35210;41.606;-87.602;2024-01-10T02:47:25;96257.91;;;5.39;95.06
49342;BME280;35210;41.606;-87.602;2024-01-10T02:49:55;96257.91;;;5.39;95.25
49342;BME280;35210;41.606;-87.602;2024-01-10T02:52:23;96253.00;;;5.44;95.20
49342;BME280;35210;41.606;-87.602;2024-01-10T02:54:51;96270.66;;;5.42;95.23
49342;BME280;35210;41.606;-87.602;2024-01-10T02:57:19;96274.09;;;5.42;95.50
49342;BME280;35210;41.606;-87.602;2024-01-10T02:59:49;96275.56;;;5.45;95.32
49342;BME280;35210;41.606;-87.602;2024-01-10T03:02:17;96273.28;;;5.42;95.84
49342;BME280;35210;41.606;-87.602;2024-01-10T03:04:45;96286.34;;;5.34;96.33
49342;BME280;35210;41.606;-87.602;2024-01-10T03:07:13;96280.97;;;5.35;96.58
49342;BME280;35210;41.606;-87.602;2024-01-10T03:09:41;96274.59;;;5.38;96.38
49342;BME280;35210;41.606;-87.602;2024-01-10T03:12:09;96292.72;;;5.31;97.24
49342;BME280;35210;41.606;-87.602;2024-01-10T03:14:38;96296.81;;;5.34;97.56
49342;BME280;35210;41.606;-87.602;2024-01-10T03:17:08;96305.78;;;5.23;95.99
49342;BME280;35210;41.606;-87.602;2024-01-10T03:19:36;96312.19;;;5.12;96.30
49342;BME280;35210;41.606;-87.602;2024-01-10T03:22:08;96314.63;;;5.06;96.02
49342;BME280;35210;41.606;-87.602;2024-01-10T03:24:36;96321.31;;;5.00;96.97
49342;BME280;35210;41.606;-87.602;2024-01-10T03:27:04;96321.94;;;4.94;96.71
49342;BME280;35210;41.606;-87.602;2024-01-10T03:29:33;96325.22;;;4.96;96.67
49342;BME280;35210;41.606;-87.602;2024-01-10T03:32:01;96324.88;;;4.91;96.54
49342;BME280;35210;41.606;-87.602;2024-01-10T03:34:31;96322.09;;;4.92;97.41
49342;BME280;35210;41.606;-87.602;2024-01-10T03:36:59;96329.94;;;4.92;96.81
49342;BME280;35210;41.606;-87.602;2024-01-10T03:39:30;96318.00;;;4.90;97.71
49342;BME280;35210;41.606;-87.602;2024-01-10T03:41:58;96323.53;;;4.87;96.50
49342;BME280;35210;41.606;-87.602;2024-01-10T03:44:27;96327.59;;;4.81;97.14
49342;BME280;35210;41.606;-87.602;2024-01-10T03:46:55;96322.19;;;4.75;97.13
49342;BME280;35210;41.606;-87.602;2024-01-10T03:49:23;96326.75;;;4.73;98.01
49342;BME280;35210;41.606;-87.602;2024-01-10T03:51:52;96329.19;;;4.66;97.87
49342;BME280;35210;41.606;-87.602;2024-01-10T03:54:20;96343.72;;;4.69;97.97
49342;BME280;35210;41.606;-87.602;2024-01-10T03:56:49;96345.06;;;4.73;97.88
49342;BME280;35210;41.606;-87.602;2024-01-10T03:59:16;96348.66;;;4.72;98.15
49342;BME280;35210;41.606;-87.602;2024-01-10T04:01:45;96355.47;;;4.65;97.93
49342;BME280;35210;41.606;-87.602;2024-01-10T04:04:13;96364.59;;;4.60;98.42
49342;BME280;35210;41.606;-87.602;2024-01-10T04:06:41;96368.34;;;4.58;98.67
49342;BME280;35210;41.606;-87.602;2024-01-10T04:09:11;96368.78;;;4.45;99.47
49342;BME280;35210;41.606;-87.602;2024-01-10T04:11:39;96384.47;;;4.45;99.39
49342;BME280;35210;41.606;-87.602;2024-01-10T04:14:07;96385.47;;;4.52;98.35
49342;BME280;35210;41.606;-87.602;2024-01-10T04:16:35;96392.78;;;4.49;99.43
49342;BME280;35210;41.606;-87.602;2024-01-10T04:19:03;96397.03;;;4.50;99.98
49342;BME280;35210;41.606;-87.602;2024-01-10T04:21:32;96410.41;;;4.47;99.20
49342;BME280;35210;41.606;-87.602;2024-01-10T04:24:00;96429.19;;;4.42;98.88
49342;BME280;35210;41.606;-87.602;2024-01-10T04:26:30;96429.66;;;4.46;99.57
49342;BME280;35210;41.606;-87.602;2024-01-10T04:28:58;96434.09;;;4.45;99.66
49342;BME280;35210;41.606;-87.602;2024-01-10T04:31:26;96459.88;;;4.40;99.02
49342;BME280;35210;41.606;-87.602;2024-01-10T04:33:54;96452.53;;;4.44;99.20
49342;BME280;35210;41.606;-87.602;2024-01-10T04:36:22;96468.38;;;4.42;98.88
49342;BME280;35210;41.606;-87.602;2024-01-10T04:38:50;96481.06;;;4.37;99.25
49342;BME280;35210;41.606;-87.602;2024-01-10T04:41:18;96486.00;;;4.40;99.14
49342;BME280;35210;41.606;-87.602;2024-01-10T04:43:49;96495.41;;;4.33;99.35
49342;BME280;35210;41.606;-87.602;2024-01-10T04:46:17;96505.19;;;4.13;99.72
49342;BME280;35210;41.606;-87.602;2024-01-10T04:48:45;96511.16;;;4.23;100.00
49342;BME280;35210;41.606;-87.602;2024-01-10T04:51:13;96528.31;;;4.26;99.28
49342;BME280;35210;41.606;-87.602;2024-01-10T04:53:41;96533.41;;;4.27;98.88
49342;BME280;35210;41.606;-87.602;2024-01-10T04:56:09;96541.16;;;4.19;99.00
49342;BME280;35210;41.606;-87.602;2024-01-10T04:58:38;96547.31;;;4.01;100.00
49342;BME280;35210;41.606;-87.602;2024-01-10T05:01:09;96553.06;;;4.04;99.67
49342;BME280;35210;41.606;-87.602;2024-01-10T05:03:37;96568.50;;;3.97;100.00
49342;BME280;35210;41.606;-87.602;2024-01-10T05:06:06;96575.38;;;3.99;100.00
49342;BME280;35210;41.606;-87.602;2024-01-10T05:08:34;96567.31;;;3.92;100.00
49342;BME280;35210;41.606;-87.602;2024-01-10T05:11:02;96582.25;;;4.00;99.51
49342;BME280;35210;41.606;-87.602;2024-01-10T05:13:30;96584.47;;;3.94;99.91
49342;BME280;35210;41.606;-87.602;2024-01-10T05:16:00;96586.41;;;3.92;100.00
49342;BME280;35210;41.606;-87.602;2024-01-10T05:18:30;96598.78;;;3.90;99.86
49342;BME280;35210;41.606;-87.602;2024-01-10T05:21:02;96602.88;;;3.93;99.74
49342;BME280;35210;41.606;-87.602;2024-01-10T05:23:31;96611.94;;;3.99;100.00
49342;BME280;35210;41.606;-87.602;2024-01-10T05:25:59;96614.38;;;4.00;99.94
49342;BME280;35210;41.606;-87.602;2024-01-10T05:28:27;96613.28;;;4.03;100.00
49342;BME280;35210;41.606;-87.602;2024-01-10T05:30:55;96635.41;;;3.99;99.58
49342;BME280;35210;41.606;-87.602;2024-01-10T05:33:23;96643.25;;;3.99;99.39
49342;BME280;35210;41.606;-87.602;2024-01-10T05:35:54;96661.56;;;3.89;99.87
49342;BME280;35210;41.606;-87.602;2024-01-10T05:38:24;96676.31;;;3.80;99.99
49342;BME280;35210;41.606;-87.602;2024-01-10T05:40:53;96679.69;;;3.90;99.79
49342;BME280;35210;41.606;-87.602;2024-01-10T05:43:21;96680.69;;;3.80;99.99
49342;BME280;35210;41.606;-87.602;2024-01-10T05:45:49;96689.50;;;3.79;100.00
49342;BME280;35210;41.606;-87.602;2024-01-10T05:48:17;96688.69;;;3.78;99.57
49342;BME280;35210;41.606;-87.602;2024-01-10T05:50:45;96694.03;;;3.77;100.00
49342;BME280;35210;41.606;-87.602;2024-01-10T05:53:15;96697.31;;;3.79;99.81
49342;BME280;35210;41.606;-87.602;2024-01-10T05:55:43;96701.47;;;3.72;100.00
49342;BME280;35210;41.606;-87.602;2024-01-10T05:58:14;96719.72;;;3.81;99.22
49342;BME280;35210;41.606;-87.602;2024-01-10T06:00:42;96718.59;;;3.84;99.23
49342;BME280;35210;41.606;-87.602;2024-01-10T06:03:10;96736.72;;;3.85;99.19
49342;BME280;35210;41.606;-87.602;2024-01-10T06:05:38;96740.56;;;3.91;99.20
49342;BME280;35210;41.606;-87.602;2024-01-10T06:08:07;96751.53;;;3.94;98.13
49342;BME280;35210;41.606;-87.602;2024-01-10T06:10:36;96768.84;;;3.95;98.08
49342;BME280;35210;41.606;-87.602;2024-01-10T06:13:04;96776.56;;;3.87;97.21
49342;BME280;35210;41.606;-87.602;2024-01-10T06:15:33;96785.91;;;3.90;97.50
49342;BME280;35210;41.606;-87.602;2024-01-10T06:18:01;96792.78;;;3.91;96.95
49342;BME280;35210;41.606;-87.602;2024-01-10T06:20:30;96799.78;;;3.90;97.48
49342;BME280;35210;41.606;-87.602;2024-01-10T06:22:59;96819.72;;;3.91;96.16
49342;BME280;35210;41.606;-87.602;2024-01-10T06:25:27;96810.34;;;3.99;95.22
49342;BME280;35210;41.606;-87.602;2024-01-10T06:27:58;96814.88;;;3.96;94.87
49342;BME280;35210;41.606;-87.602;2024-01-10T06:30:24;96824.66;;;3.94;94.22
49342;BME280;35210;41.606;-87.602;2024-01-10T06:32:52;96832.06;;;3.99;95.46
49342;BME280;35210;41.606;-87.602;2024-01-10T06:35:21;96840.56;;;4.01;95.21
49342;BME280;35210;41.606;-87.602;2024-01-10T06:37:49;96854.06;;;3.87;94.35
49342;BME280;35210;41.606;-87.602;2024-01-10T06:40:17;96866.97;;;3.88;94.43
49342;BME280;35210;41.606;-87.602;2024-01-10T06:42:47;96875.78;;;3.87;93.98
49342;BME280;35210;41.606;-87.602;2024-01-10T06:45:17;96880.84;;;3.79;93.50
49342;BME280;35210;41.606;-87.602;2024-01-10T06:47:46;96888.69;;;3.79;93.54
49342;BME280;35210;41.606;-87.602;2024-01-10T06:50:14;96902.97;;;3.94;93.21
49342;BME280;35210;41.606;-87.602;2024-01-10T06:52:42;96914.50;;;3.82;93.68
49342;BME280;35210;41.606;-87.602;2024-01-10T06:55:10;96911.50;;;3.87;93.23
49342;BME280;35210;41.606;-87.602;2024-01-10T06:57:43;96923.59;;;3.78;93.01
49342;BME280;35210;41.606;-87.602;2024-01-10T07:00:12;96938.28;;;3.79;93.96
49342;BME280;35210;41.606;-87.602;2024-01-10T07:02:43;96958.88;;;3.73;93.68
49342;BME280;35210;41.606;-87.602;2024-01-10T07:05:11;96960.97;;;3.69;94.13
49342;BME280;35210;41.606;-87.602;2024-01-10T07:07:40;96978.53;;;3.77;93.86
49342;BME280;35210;41.606;-87.602;2024-01-10T07:10:08;96996.53;;;3.80;94.06
49342;BME280;35210;41.606;-87.602;2024-01-10T07:12:36;97008.50;;;3.82;94.33
49342;BME280;35210;41.606;-87.602;2024-01-10T07:15:06;97016.16;;;3.74;94.08
49342;BME280;35210;41.606;-87.602;2024-01-10T07:17:34;97029.63;;;3.79;94.13
49342;BME280;35210;41.606;-87.602;2024-01-10T07:20:07;97046.94;;;3.80;92.74
49342;BME280;35210;41.606;-87.602;2024-01-10T07:22:38;97055.47;;;3.82;92.72
49342;BME280;35210;41.606;-87.602;2024-01-10T07:25:08;97057.94;;;3.84;92.48
49342;BME280;35210;41.606;-87.602;2024-01-10T07:27:41;97070.34;;;3.91;91.96
49342;BME280;35210;41.606;-87.602;2024-01-10T07:30:10;97082.28;;;3.84;92.31
49342;BME280;35210;41.606;-87.602;2024-01-10T07:32:40;97087.91;;;3.89;92.30
49342;BME280;35210;41.606;-87.602;2024-01-10T07:35:11;97095.34;;;3.94;91.95
49342;BME280;35210;41.606;-87.602;2024-01-10T07:37:42;97097.28;;;4.02;91.12
49342;BME280;35210;41.606;-87.602;2024-01-10T07:40:12;97091.81;;;4.05;90.02
49342;BME280;35210;41.606;-87.602;2024-01-10T07:42:42;97098.41;;;4.09;89.79
49342;BME280;35210;41.606;-87.602;2024-01-10T07:45:11;97103.91;;;4.06;89.70
49342;BME280;35210;41.606;-87.602;2024-01-10T07:47:41;97109.13;;;4.06;89.95
49342;BME280;35210;41.606;-87.602;2024-01-10T07:50:11;97120.53;;;4.05;90.98
49342;BME280;35210;41.606;-87.602;2024-01-10T07:52:40;97136.63;;;4.10;90.33
49342;BME280;35210;41.606;-87.602;2024-01-10T07:55:10;97133.47;;;4.16;90.00
49342;BME280;35210;41.606;-87.602;2024-01-10T07:57:40;97151.16;;;4.03;89.78
49342;BME280;35210;41.606;-87.602;2024-01-10T08:00:09;97163.28;;;4.04;90.02
49342;BME280;35210;41.606;-87.602;2024-01-10T08:02:41;97163.28;;;4.04;90.54
49342;BME280;35210;41.606;-87.602;2024-01-10T08:05:12;97185.56;;;4.08;91.54
49342;BME280;35210;41.606;-87.602;2024-01-10T08:07:41;97187.91;;;4.11;91.25
49342;BME280;35210;41.606;-87.602;2024-01-10T08:10:10;97191.59;;;4.08;91.70
49342;BME280;35210;41.606;-87.602;2024-01-10T08:12:39;97200.25;;;4.09;91.25
49342;BME280;35210;41.606;-87.602;2024-01-10T08:15:09;97201.88;;;4.00;91.69
49342;BME280;35210;41.606;-87.602;2024-01-10T08:17:38;97205.34;;;4.10;91.95
49342;BME280;35210;41.606;-87.602;2024-01-10T08:20:07;97204.00;;;4.16;89.69
49342;BME280;35210;41.606;-87.602;2024-01-10T08:22:38;97211.66;;;4.08;90.15
49342;BME280;35210;41.606;-87.602;2024-01-10T08:25:10;97221.53;;;4.04;90.66
49342;BME280;35210;41.606;-87.602;2024-01-10T08:27:38;97223.75;;;4.09;90.81
49342;BME280;35210;41.606;-87.602;2024-01-10T08:30:07;97221.72;;;4.12;90.84
49342;BME280;35210;41.606;-87.602;2024-01-10T08:32:36;97227.19;;;4.09;91.22
49342;BME280;35210;41.606;-87.602;2024-01-10T08:35:05;97232.03;;;4.14;91.37
49342;BME280;35210;41.606;-87.602;2024-01-10T08:37:35;97241.34;;;4.07;88.81
49342;BME280;35210;41.606;-87.602;2024-01-10T08:40:06;97262.81;;;4.10;89.21
49342;BME280;35210;41.606;-87.602;2024-01-10T08:42:38;97270.94;;;4.17;89.87
49342;BME280;35210;41.606;-87.602;2024-01-10T08:45:07;97272.75;;;4.16;88.64
49342;BME280;35210;41.606;-87.602;2024-01-10T08:47:37;97273.81;;;4.14;89.08
49342;BME280;35210;41.606;-87.602;2024-01-10T08:50:06;97271.03;;;4.06;89.70
49342;BME280;35210;41.606;-87.602;2024-01-10T08:52:35;97280.69;;;4.15;89.93
49342;BME280;35210;41.606;-87.602;2024-01-10T08:55:07;97304.91;;;4.17;89.92
49342;BME280;35210;41.606;-87.602;2024-01-10T08:57:36;97303.81;;;4.19;89.98
49342;BME280;35210;41.606;-87.602;2024-01-10T09:00:05;97308.22;;;4.19;89.35
49342;BME280;35210;41.606;-87.602;2024-01-10T09:02:33;97308.78;;;4.22;88.60
49342;BME280;35210;41.606;-87.602;2024-01-10T09:05:03;97308.22;;;4.19;89.06
49342;BME280;35210;41.606;-87.602;2024-01-10T09:07:32;97318.97;;;4.25;88.64
49342;BME280;35210;41.606;-87.602;2024-01-10T09:10:00;97328.03;;;4.21;89.35
49342;BME280;35210;41.606;-87.602;2024-01-10T09:12:33;97334.06;;;4.22;89.23
49342;BME280;35210;41.606;-87.602;2024-01-10T09:15:01;97337.13;;;4.27;88.33
49342;BME280;35210;41.606;-87.602;2024-01-10T09:17:29;97343.69;;;4.21;88.82
49342;BME280;35210;41.606;-87.602;2024-01-10T09:19:57;97352.88;;;4.16;88.50
49342;BME280;35210;41.606;-87.602;2024-01-10T09:22:25;97350.72;;;4.21;89.30
49342;BME280;35210;41.606;-87.602;2024-01-10T09:24:53;97359.94;;;4.25;88.94
49342;BME280;35210;41.606;-87.602;2024-01-10T09:27:21;97360.25;;;4.32;87.99
49342;BME280;35210;41.606;-87.602;2024-01-10T09:29:51;97368.78;;;4.34;88.11
49342;BME280;35210;41.606;-87.602;2024-01-10T09:32:19;97378.75;;;4.19;88.01
49342;BME280;35210;41.606;-87.602;2024-01-10T09:34:48;97386.19;;;4.23;88.54
49342;BME280;35210;41.606;-87.602;2024-01-10T09:37:16;97388.69;;;4.25;88.86
49342;BME280;35210;41.606;-87.602;2024-01-10T09:39:45;97389.63;;;4.24;89.23
49342;BME280;35210;41.606;-87.602;2024-01-10T09:42:14;97386.63;;;4.28;88.96
49342;BME280;35210;41.606;-87.602;2024-01-10T09:44:42;97380.31;;;4.31;88.87
49342;BME280;35210;41.606;-87.602;2024-01-10T09:47:13;97388.69;;;4.25;87.56
49342;BME280;35210;41.606;-87.602;2024-01-10T09:49:43;97383.28;;;4.17;86.21
49342;BME280;35210;41.606;-87.602;2024-01-10T09:52:24;97393.47;;;4.20;86.29
49342;BME280;35210;41.606;-87.602;2024-01-10T09:54:55;97399.00;;;4.26;86.85
49342;BME280;35210;41.606;-87.602;2024-01-10T09:57:23;97412.69;;;4.19;85.47
49342;BME280;35210;41.606;-87.602;2024-01-10T09:59:52;97416.66;;;4.13;85.79
49342;BME280;35210;41.606;-87.602;2024-01-10T10:02:27;97431.94;;;4.18;85.58
49342;BME280;35210;41.606;-87.602;2024-01-10T10:05:03;97446.53;;;4.20;85.25
49342;BME280;35210;41.606;-87.602;2024-01-10T10:07:43;97460.72;;;4.07;84.35
49342;BME280;35210;41.606;-87.602;2024-01-10T10:10:11;97460.97;;;4.04;84.79
49342;BME280;35210;41.606;-87.602;2024-01-10T10:12:45;97454.16;;;4.12;85.51
49342;BME280;35210;41.606;-87.602;2024-01-10T10:15:15;97469.47;;;4.17;85.58
49342;BME280;35210;41.606;-87.602;2024-01-10T10:17:46;97480.38;;;4.22;84.51
49342;BME280;35210;41.606;-87.602;2024-01-10T10:20:17;97498.84;;;4.30;83.70
49342;BME280;35210;41.606;-87.602;2024-01-10T10:22:58;97495.53;;;4.28;82.55
49342;BME280;35210;41.606;-87.602;2024-01-10T10:25:30;97490.00;;;4.21;83.27
49342;BME280;35210;41.606;-87.602;2024-01-10T10:27:59;97495.78;;;4.25;83.70
49342;BME280;35210;41.606;-87.602;2024-01-10T10:30:28;97513.94;;;4.26;83.91
49342;BME280;35210;41.606;-87.602;2024-01-10T10:32:58;97515.97;;;4.23;82.67
49342;BME280;35210;41.606;-87.602;2024-01-10T10:35:26;97526.81;;;4.18;83.05
49342;BME280;35210;41.606;-87.602;2024-01-10T10:37:54;97531.91;;;4.20;82.90
49342;BME280;35210;41.606;-87.602;2024-01-10T10:40:24;97538.09;;;4.19;82.78
49342;BME280;35210;41.606;-87.602;2024-01-10T10:42:55;97538.09;;;4.19;83.13
49342;BME280;35210;41.606;-87.602;2024-01-10T10:45:24;97534.41;;;4.21;83.73
49342;BME280;35210;41.606;-87.602;2024-01-10T10:47:59;97549.69;;;4.26;82.12
49342;BME280;35210;41.606;-87.602;2024-01-10T10:50:28;97548.28;;;4.22;82.41
49342;BME280;35210;41.606;-87.602;2024-01-10T10:53:02;97557.00;;;4.11;82.56
49342;BME280;35210;41.606;-87.602;2024-01-10T10:55:31;97556.16;;;4.11;82.63
49342;BME280;35210;41.606;-87.602;2024-01-10T10:58:01;97573.38;;;4.13;83.20
49342;BME280;35210;41.606;-87.602;2024-01-10T11:00:32;97576.22;;;4.10;82.84
49342;BME280;35210;41.606;-87.602;2024-01-10T11:03:04;97580.63;;;4.10;81.71
49342;BME280;35210;41.606;-87.602;2024-01-10T11:05:34;97596.28;;;4.10;81.94
49342;BME280;35210;41.606;-87.602;2024-01-10T11:08:03;97596.28;;;4.10;81.84
49342;BME280;35210;41.606;-87.602;2024-01-10T11:10:33;97597.72;;;4.03;82.22
49342;BME280;35210;41.606;-87.602;2024-01-10T11:13:19;97598.91;;;4.10;83.25
49342;BME280;35210;41.606;-87.602;2024-01-10T11:16:05;97613.38;;;4.14;82.15
49342;BME280;35210;41.606;-87.602;2024-01-10T11:18:56;97631.88;;;4.22;82.22
49342;BME280;35210;41.606;-87.602;2024-01-10T11:21:39;97634.41;;;4.12;81.86
49342;BME280;35210;41.606;-87.602;2024-01-10T11:24:14;97641.06;;;4.05;81.18
49342;BME280;35210;41.606;-87.602;2024-01-10T11:26:42;97659.34;;;4.05;82.18
49342;BME280;35210;41.606;-87.602;2024-01-10T11:29:12;97653.66;;;4.00;81.75
49342;BME280;35210;41.606;-87.602;2024-01-10T11:31:50;97677.03;;;4.02;82.79
49342;BME280;35210;41.606;-87.602;2024-01-10T11:34:24;97682.13;;;4.03;82.83
49342;BME280;35210;41.606;-87.602;2024-01-10T11:37:12;97686.88;;;3.87;82.85
49342;BME280;35210;41.606;-87.602;2024-01-10T11:39:41;97690.09;;;3.79;83.52
49342;BME280;35210;41.606;-87.602;2024-01-10T11:42:10;97698.41;;;3.84;84.31
49342;BME280;35210;41.606;-87.602;2024-01-10T11:44:47;97715.25;;;3.80;84.25
49342;BME280;35210;41.606;-87.602;2024-01-10T11:47:16;97714.19;;;3.94;84.25
49342;BME280;35210;41.606;-87.602;2024-01-10T11:49:56;97730.44;;;3.97;84.78
49342;BME280;35210;41.606;-87.602;2024-01-10T11:52:32;97734.25;;;3.93;83.52
49342;BME280;35210;41.606;-87.602;2024-01-10T11:55:01;97756.09;;;3.92;84.40
49342;BME280;35210;41.606;-87.602;2024-01-10T11:57:31;97762.59;;;3.87;84.07
49342;BME280;35210;41.606;-87.602;2024-01-10T11:59:59;97769.25;;;3.91;84.78
49342;BME280;35210;41.606;-87.602;2024-01-10T12:02:29;97772.91;;;3.77;83.73
49342;BME280;35210;41.606;-87.602;2024-01-10T12:04:58;97784.53;;;3.62;85.60
49342;BME280;35210;41.606;-87.602;2024-01-10T12:07:27;97796.53;;;3.65;84.97
49342;BME280;35210;41.606;-87.602;2024-01-10T12:09:59;97795.34;;;3.69;85.35
49342;BME280;35210;41.606;-87.602;2024-01-10T12:12:27;97802.56;;;3.54;85.52
49342;BME280;35210;41.606;-87.602;2024-01-10T12:14:55;97800.78;;;3.54;85.82
49342;BME280;35210;41.606;-87.602;2024-01-10T12:17:27;97809.72;;;3.39;86.34
49342;BME280;35210;41.606;-87.602;2024-01-10T12:19:55;97816.47;;;3.30;87.88
49342;BME280;35210;41.606;-87.602;2024-01-10T12:22:25;97822.63;;;3.29;87.90
49342;BME280;35210;41.606;-87.602;2024-01-10T12:24:53;97826.78;;;3.08;88.42
49342;BME280;35210;41.606;-87.602;2024-01-10T12:27:21;97823.16;;;3.22;87.87
49342;BME280;35210;41.606;-87.602;2024-01-10T12:29:49;97838.09;;;3.20;87.80
49342;BME280;35210;41.606;-87.602;2024-01-10T12:32:18;97828.78;;;3.28;87.36
49342;BME280;35210;41.606;-87.602;2024-01-10T12:34:48;97839.66;;;3.22;87.90
49342;BME280;35210;41.606;-87.602;2024-01-10T12:37:16;97843.94;;;3.23;88.63
49342;BME280;35210;41.606;-87.602;2024-01-10T12:39:48;97857.25;;;3.32;89.25
49342;BME280;35210;41.606;-87.602;2024-01-10T12:42:16;97856.69;;;3.39;88.24
49342;BME280;35210;41.606;-87.602;2024-01-10T12:44:45;97855.84;;;3.39;86.33
49342;BME280;35210;41.606;-87.602;2024-01-10T12:47:18;97863.06;;;3.11;87.48
49342;BME280;35210;41.606;-87.602;2024-01-10T12:49:47;97856.56;;;3.17;88.54
49342;BME280;35210;41.606;-87.602;2024-01-10T12:52:15;97862.19;;;3.23;86.54
49342;BME280;35210;41.606;-87.602;2024-01-10T12:54:47;97866.25;;;3.27;86.73
49342;BME280;35210;41.606;-87.602;2024-01-10T12:57:15;97861.03;;;3.27;85.86
49342;BME280;35210;41.606;-87.602;2024-01-10T12:59:43;97877.13;;;3.21;86.56
49342;BME280;35210;41.606;-87.602;2024-01-10T13:02:11;97882.63;;;3.29;85.62